Time;durP1;ratioP1;P1;durP2;ratioP2;P2;SDS_P1;SDS_P2;PMS_P1;PMS_P2;Temp;Humidity;BMP_temperature;BMP_pressure;BME280_temperature;BME280_humidity;BME280_pressure;Samples;Min_cycle;Max_cycle;Signal;HPM_P1;HPM_P2
2023/10/30 00:00:45;;;;;;;3.58;1.30;;;11.30;99.90;;;;;;4998430;28;20441;-62
2023/10/30 00:03:11;;;;;;;2.67;1.50;;;11.30;99.90;;;;;;4998900;28;20125;-62
2023/10/30 00:05:37;;;;;;;2.08;1.50;;;11.30;99.90;;;;;;4994193;28;20598;-62
2023/10/30 00:08:03;;;;;;;6.05;2.30;;;11.30;99.90;;;;;;4996433;28;20030;-62
2023/10/30 00:10:28;;;;;;;3.85;1.30;;;11.30;99.90;;;;;;4997763;28;20652;-61
2023/10/30 00:12:54;;;;;;;2.33;1.55;;;11.30;99.90;;;;;;5000970;28;20050;-62
2023/10/30 00:15:20;;;;;;;2.17;1.70;;;11.30;99.90;;;;;;4996963;28;20085;-62
2023/10/30 00:17:46;;;;;;;4.45;1.63;;;11.30;99.90;;;;;;4998312;28;20026;-62
2023/10/30 00:20:11;;;;;;;5.25;1.55;;;11.30;99.90;;;;;;4996152;28;20033;-62
2023/10/30 00:22:37;;;;;;;3.80;1.30;;;11.30;99.90;;;;;;4999083;28;20502;-62
2023/10/30 00:25:03;;;;;;;2.03;1.30;;;11.30;99.90;;;;;;4998530;28;20027;-62
2023/10/30 00:27:29;;;;;;;3.38;1.40;;;11.30;99.90;;;;;;4999999;28;20053;-61
2023/10/30 00:29:54;;;;;;;3.97;1.73;;;11.20;99.90;;;;;;5000114;28;20365;-62
2023/10/30 00:32:20;;;;;;;6.85;1.38;;;11.20;99.90;;;;;;4998162;28;20034;-62
2023/10/30 00:34:46;;;;;;;2.72;1.40;;;11.20;99.90;;;;;;4999088;28;20052;-61
2023/10/30 00:37:12;;;;;;;3.08;1.70;;;11.20;99.90;;;;;;4997855;28;20041;-61
2023/10/30 00:39:38;;;;;;;8.52;2.08;;;11.20;99.90;;;;;;4999979;28;20026;-62
2023/10/30 00:42:04;;;;;;;7.07;1.60;;;11.20;99.90;;;;;;4997808;28;20162;-61
2023/10/30 00:44:30;;;;;;;2.35;1.83;;;11.20;99.90;;;;;;4996578;28;20688;-62
2023/10/30 00:46:55;;;;;;;2.25;1.63;;;11.30;99.90;;;;;;4996651;28;20489;-62
2023/10/30 00:49:21;;;;;;;4.28;1.40;;;11.30;99.90;;;;;;4999374;28;20100;-62
2023/10/30 00:51:47;;;;;;;6.22;1.55;;;11.30;99.90;;;;;;5000288;28;20537;-61
2023/10/30 00:54:13;;;;;;;4.05;1.50;;;11.30;99.90;;;;;;4998351;28;20594;-62
2023/10/30 00:56:38;;;;;;;3.20;1.40;;;11.30;99.90;;;;;;4998327;28;20117;-61
2023/10/30 00:59:04;;;;;;;4.47;1.45;;;11.30;99.90;;;;;;4995600;28;20552;-62
2023/10/30 01:01:30;;;;;;;4.68;1.42;;;11.30;99.90;;;;;;4998615;28;20022;-62
2023/10/30 01:03:55;;;;;;;2.10;1.35;;;11.30;99.90;;;;;;4994538;28;20034;-62
2023/10/30 01:06:21;;;;;;;4.25;1.73;;;11.30;99.90;;;;;;4996755;28;20028;-62
2023/10/30 01:08:46;;;;;;;3.38;1.52;;;11.30;99.90;;;;;;4994598;28;20470;-61
2023/10/30 01:11:12;;;;;;;5.97;2.83;;;11.30;99.90;;;;;;4993053;28;20088;-62
2023/10/30 01:13:37;;;;;;;5.28;1.30;;;11.30;99.90;;;;;;4994147;28;20540;-62
2023/10/30 01:16:05;;;;;;;3.10;1.30;;;11.30;99.90;;;;;;4998802;28;20038;-62
2023/10/30 01:18:30;;;;;;;5.72;1.50;;;11.30;99.90;;;;;;4998960;28;20485;-62
2023/10/30 01:20:57;;;;;;;1.83;1.17;;;11.30;99.90;;;;;;5000348;28;20033;-62
2023/10/30 01:23:22;;;;;;;2.05;1.20;;;11.30;99.90;;;;;;4997779;28;20042;-62
2023/10/30 01:25:48;;;;;;;4.18;1.52;;;11.30;99.90;;;;;;4993948;28;20259;-63
2023/10/30 01:28:14;;;;;;;1.75;1.17;;;11.30;99.90;;;;;;4997406;28;20031;-62
2023/10/30 01:30:40;;;;;;;2.15;1.40;;;11.30;99.90;;;;;;4997094;28;20501;-62
2023/10/30 01:33:06;;;;;;;5.03;1.38;;;11.30;99.90;;;;;;4994058;28;20030;-63
2023/10/30 01:35:32;;;;;;;5.15;1.27;;;11.40;99.90;;;;;;4996446;28;20041;-63
2023/10/30 01:37:57;;;;;;;4.70;1.20;;;11.30;99.90;;;;;;4996652;28;20045;-63
2023/10/30 01:40:23;;;;;;;2.30;1.52;;;11.40;99.90;;;;;;4996090;28;20528;-63
2023/10/30 01:42:49;;;;;;;3.30;1.40;;;11.40;99.90;;;;;;4998646;28;20168;-64
2023/10/30 01:45:15;;;;;;;8.02;1.63;;;11.40;99.90;;;;;;4997510;28;20363;-63
2023/10/30 01:47:42;;;;;;;4.90;1.35;;;11.40;99.90;;;;;;4996287;28;20033;-64
2023/10/30 01:50:10;;;;;;;4.20;1.80;;;11.40;99.90;;;;;;4997492;28;20092;-63
2023/10/30 01:52:36;;;;;;;11.70;2.13;;;11.40;99.90;;;;;;4994759;28;20652;-63
2023/10/30 01:55:04;;;;;;;2.03;1.25;;;11.40;99.90;;;;;;4996409;28;20030;-63
2023/10/30 01:57:32;;;;;;;2.30;1.02;;;11.40;99.90;;;;;;4996383;28;20042;-63
2023/10/30 01:59:58;;;;;;;5.93;1.15;;;11.40;99.90;;;;;;4997343;28;20007;-63
2023/10/30 02:02:25;;;;;;;3.38;1.05;;;11.40;99.90;;;;;;4996442;28;20109;-63
2023/10/30 02:04:51;;;;;;;3.50;1.30;;;11.40;99.90;;;;;;4995686;28;20072;-63
2023/10/30 02:07:16;;;;;;;4.55;1.13;;;11.40;99.90;;;;;;4997748;28;20034;-62
2023/10/30 02:09:42;;;;;;;2.28;1.23;;;11.30;99.90;;;;;;4996681;28;20109;-62
2023/10/30 02:12:08;;;;;;;4.30;1.45;;;11.30;99.90;;;;;;4996808;28;20722;-61
2023/10/30 02:14:34;;;;;;;9.23;1.60;;;11.30;99.90;;;;;;4996633;28;20029;-62
2023/10/30 02:16:59;;;;;;;4.28;1.35;;;11.30;99.90;;;;;;4996419;28;20026;-62
2023/10/30 02:19:27;;;;;;;5.07;1.23;;;11.30;99.90;;;;;;4998800;28;20081;-62
2023/10/30 02:21:54;;;;;;;1.50;1.00;;;11.30;99.90;;;;;;4997952;28;20029;-62
2023/10/30 02:24:20;;;;;;;6.88;1.25;;;11.30;99.90;;;;;;4998432;28;20022;-61
2023/10/30 02:26:49;;;;;;;2.78;1.00;;;11.30;99.90;;;;;;4994621;28;20058;-62
2023/10/30 02:29:15;;;;;;;4.97;1.08;;;11.30;99.90;;;;;;4993997;28;20034;-62
2023/10/30 02:31:41;;;;;;;2.63;1.10;;;11.30;99.90;;;;;;4996688;28;20033;-62
2023/10/30 02:34:07;;;;;;;3.35;1.38;;;11.30;99.90;;;;;;4998450;28;20443;-62
2023/10/30 02:36:33;;;;;;;2.42;0.80;;;11.30;99.90;;;;;;4999066;28;20030;-63
2023/10/30 02:38:58;;;;;;;2.60;1.00;;;11.30;99.90;;;;;;5001771;28;20061;-60
2023/10/30 02:41:29;;;;;;;2.38;0.90;;;11.20;99.90;;;;;;5000237;28;20080;-62
2023/10/30 02:43:54;;;;;;;5.15;1.00;;;11.20;99.90;;;;;;5001994;28;20506;-62
2023/10/30 02:46:20;;;;;;;2.50;1.20;;;11.20;99.90;;;;;;4999412;28;20022;-63
2023/10/30 02:48:46;;;;;;;4.65;1.00;;;11.10;99.90;;;;;;4999613;28;20084;-62
2023/10/30 02:51:11;;;;;;;3.53;1.02;;;11.10;99.90;;;;;;5001116;28;20021;-62
2023/10/30 02:53:37;;;;;;;6.35;1.35;;;11.10;99.90;;;;;;5002258;28;20077;-62
2023/10/30 02:56:03;;;;;;;2.92;1.00;;;11.00;99.90;;;;;;5001804;28;20037;-62
2023/10/30 02:58:28;;;;;;;1.25;0.90;;;11.10;99.90;;;;;;5001383;28;20050;-62
2023/10/30 03:00:55;;;;;;;3.00;0.98;;;11.10;99.90;;;;;;5002500;28;20854;-62
2023/10/30 03:03:20;;;;;;;3.53;1.10;;;11.10;99.90;;;;;;4997321;28;20018;-63
2023/10/30 03:05:46;;;;;;;3.35;1.13;;;11.10;99.90;;;;;;4999697;28;20022;-62
2023/10/30 03:08:11;;;;;;;6.57;1.20;;;11.10;99.90;;;;;;4999393;28;20045;-62
2023/10/30 03:10:37;;;;;;;2.05;1.00;;;11.20;99.90;;;;;;4998336;28;20062;-61
2023/10/30 03:13:02;;;;;;;1.77;1.13;;;11.10;99.90;;;;;;4999462;28;20046;-62
2023/10/30 03:15:28;;;;;;;5.50;1.25;;;11.10;99.90;;;;;;4998312;28;20030;-62
2023/10/30 03:17:54;;;;;;;4.28;1.23;;;11.10;99.90;;;;;;5000900;28;20053;-62
2023/10/30 03:20:19;;;;;;;12.65;1.48;;;11.10;99.90;;;;;;4999530;28;20034;-62
2023/10/30 03:22:45;;;;;;;2.97;1.02;;;11.00;99.90;;;;;;5000607;28;20034;-62
2023/10/30 03:25:10;;;;;;;3.22;1.10;;;11.00;99.90;;;;;;4997972;28;20031;-62
2023/10/30 03:27:36;;;;;;;2.28;1.10;;;11.00;99.90;;;;;;4999464;28;20030;-62
2023/10/30 03:30:03;;;;;;;3.42;1.00;;;11.00;99.90;;;;;;4999519;28;20069;-62
2023/10/30 03:32:29;;;;;;;8.93;1.20;;;11.00;99.90;;;;;;4998870;28;20125;-62
2023/10/30 03:34:54;;;;;;;1.15;0.80;;;11.00;99.90;;;;;;4997522;28;20045;-62
2023/10/30 03:37:20;;;;;;;5.15;1.13;;;10.90;99.90;;;;;;4999218;28;20026;-62
2023/10/30 03:39:46;;;;;;;3.65;1.02;;;10.90;99.90;;;;;;4999942;28;20061;-61
2023/10/30 03:42:12;;;;;;;2.40;0.90;;;10.90;99.90;;;;;;4998418;28;20032;-61
2023/10/30 03:44:38;;;;;;;8.15;1.00;;;10.80;99.90;;;;;;4999141;28;20026;-62
2023/10/30 03:47:04;;;;;;;2.90;1.52;;;10.80;99.90;;;;;;4998357;28;20036;-62
2023/10/30 03:49:29;;;;;;;4.40;1.05;;;10.80;99.90;;;;;;4995067;28;20470;-62
2023/10/30 03:51:55;;;;;;;6.43;1.27;;;10.70;99.90;;;;;;4997922;28;20032;-61
2023/10/30 03:54:22;;;;;;;8.07;1.45;;;10.70;99.90;;;;;;5000068;28;20044;-61
2023/10/30 03:56:47;;;;;;;5.80;1.27;;;10.60;99.90;;;;;;4999464;28;20022;-62
2023/10/30 03:59:15;;;;;;;5.10;1.25;;;10.60;99.90;;;;;;4998573;28;20382;-61
2023/10/30 04:01:41;;;;;;;6.97;1.40;;;10.50;99.90;;;;;;4997142;28;20425;-61
2023/10/30 04:04:07;;;;;;;5.13;1.02;;;10.40;99.90;;;;;;4994803;28;20037;-62
2023/10/30 04:06:35;;;;;;;3.50;1.17;;;10.40;99.90;;;;;;4994470;28;20030;-62
2023/10/30 04:09:03;;;;;;;3.90;1.35;;;10.40;99.90;;;;;;4998662;28;20112;-61
2023/10/30 04:11:29;;;;;;;2.33;1.05;;;10.40;99.90;;;;;;5001159;28;20053;-62
2023/10/30 04:13:54;;;;;;;3.72;1.30;;;10.40;99.90;;;;;;5000273;28;20466;-62
2023/10/30 04:16:20;;;;;;;10.93;1.48;;;10.40;99.90;;;;;;5001153;28;20014;-62
2023/10/30 04:18:46;;;;;;;7.53;1.70;;;10.30;99.90;;;;;;4999036;28;20780;-62
2023/10/30 04:21:12;;;;;;;2.35;1.23;;;10.30;99.90;;;;;;4996247;28;20444;-61
2023/10/30 04:23:38;;;;;;;3.38;1.40;;;10.30;99.90;;;;;;4997158;28;20114;-62
2023/10/30 04:26:04;;;;;;;6.07;1.30;;;10.30;99.90;;;;;;4996521;28;20117;-62
2023/10/30 04:28:30;;;;;;;5.07;1.55;;;10.40;99.90;;;;;;4995948;28;20034;-62
2023/10/30 04:30:56;;;;;;;7.60;1.85;;;10.30;99.90;;;;;;4997500;28;20041;-62
2023/10/30 04:33:21;;;;;;;3.28;1.50;;;10.40;99.90;;;;;;4998998;28;20026;-62
2023/10/30 04:35:47;;;;;;;3.97;1.50;;;10.40;99.90;;;;;;4996418;28;20029;-61
2023/10/30 04:38:12;;;;;;;4.47;1.50;;;10.40;99.90;;;;;;4994818;28;20104;-62
2023/10/30 04:40:38;;;;;;;5.32;1.67;;;10.40;99.90;;;;;;4992162;28;20037;-62
2023/10/30 04:43:04;;;;;;;2.88;1.63;;;10.40;99.90;;;;;;4993542;28;20116;-62
2023/10/30 04:45:29;;;;;;;2.15;1.30;;;10.40;99.90;;;;;;4997562;28;20034;-62
2023/10/30 04:47:55;;;;;;;7.05;1.55;;;10.40;99.90;;;;;;4997246;28;20034;-62
2023/10/30 04:50:21;;;;;;;2.40;1.40;;;10.40;99.90;;;;;;4998758;28;20026;-63
2023/10/30 04:52:47;;;;;;;3.85;1.58;;;10.40;99.90;;;;;;4996985;28;20897;-63
2023/10/30 04:55:12;;;;;;;4.53;1.38;;;10.30;99.90;;;;;;4996480;28;20045;-63
2023/10/30 04:57:38;;;;;;;4.80;1.60;;;10.30;99.90;;;;;;4993489;28;20136;-63
2023/10/30 05:00:06;;;;;;;5.72;1.90;;;10.20;99.90;;;;;;4999029;28;20034;-63
2023/10/30 05:02:31;;;;;;;4.05;1.52;;;10.10;99.90;;;;;;4997086;28;20037;-63
2023/10/30 05:04:57;;;;;;;7.25;2.00;;;10.10;99.90;;;;;;4998080;28;20441;-63
2023/10/30 05:07:22;;;;;;;3.25;1.83;;;10.20;99.90;;;;;;4995870;28;20149;-63
2023/10/30 05:09:49;;;;;;;10.93;2.50;;;10.20;99.90;;;;;;4995786;28;20058;-64
2023/10/30 05:12:14;;;;;;;4.22;2.17;;;10.30;99.90;;;;;;4989033;28;20084;-63
2023/10/30 05:14:40;;;;;;;2.78;1.77;;;10.30;99.90;;;;;;5011347;28;20035;-63
2023/10/30 05:17:06;;;;;;;3.65;1.90;;;10.40;99.90;;;;;;4996118;28;20033;-62
2023/10/30 05:19:32;;;;;;;4.72;2.10;;;10.40;99.90;;;;;;4995440;28;20120;-62
2023/10/30 05:21:57;;;;;;;7.28;1.98;;;10.40;99.90;;;;;;4994342;28;20037;-63
2023/10/30 05:24:23;;;;;;;3.70;2.38;;;10.40;99.90;;;;;;4996502;28;20113;-63
2023/10/30 05:26:49;;;;;;;5.90;1.90;;;10.40;99.90;;;;;;4997434;28;20030;-62
2023/10/30 05:29:15;;;;;;;7.75;1.95;;;10.40;99.90;;;;;;4999705;28;20030;-63
2023/10/30 05:31:42;;;;;;;3.50;1.40;;;10.30;99.90;;;;;;4997851;28;20037;-63
2023/10/30 05:34:08;;;;;;;4.30;1.60;;;10.30;99.90;;;;;;4999318;28;20805;-63
2023/10/30 05:36:34;;;;;;;3.75;1.33;;;10.30;99.90;;;;;;4998284;28;20035;-63
2023/10/30 05:39:00;;;;;;;4.45;1.50;;;10.20;99.90;;;;;;4996473;28;20019;-63
2023/10/30 05:41:25;;;;;;;2.55;1.33;;;10.20;99.90;;;;;;4997851;28;20018;-63
2023/10/30 05:43:51;;;;;;;2.30;1.83;;;10.10;99.90;;;;;;4996849;28;20468;-63
2023/10/30 05:46:17;;;;;;;2.95;1.30;;;10.10;99.90;;;;;;4994211;28;20489;-62
2023/10/30 05:48:44;;;;;;;4.25;1.15;;;10.00;99.90;;;;;;4994319;28;20057;-63
2023/10/30 05:51:10;;;;;;;1.23;0.90;;;10.00;99.90;;;;;;4999799;28;20025;-62
2023/10/30 05:53:36;;;;;;;5.80;1.40;;;10.00;99.90;;;;;;4997422;28;20608;-63
2023/10/30 05:56:02;;;;;;;5.78;1.65;;;10.00;99.90;;;;;;4995107;28;20030;-63
2023/10/30 05:58:27;;;;;;;6.28;1.48;;;10.00;99.90;;;;;;4995634;28;20474;-62
2023/10/30 06:00:53;;;;;;;9.85;1.65;;;10.00;99.90;;;;;;4994811;28;20073;-63
2023/10/30 06:03:18;;;;;;;3.60;2.10;;;9.90;99.90;;;;;;4996845;28;20426;-61
2023/10/30 06:05:44;;;;;;;3.72;1.58;;;9.90;99.90;;;;;;4995982;28;20034;-63
2023/10/30 06:08:11;;;;;;;5.50;2.00;;;9.90;99.90;;;;;;4998193;28;20077;-63
2023/10/30 06:10:38;;;;;;;6.50;1.80;;;9.80;99.90;;;;;;4993076;28;20112;-63
2023/10/30 06:13:06;;;;;;;2.85;1.60;;;9.80;99.90;;;;;;4999318;28;20031;-63
2023/10/30 06:15:32;;;;;;;8.23;1.60;;;9.80;99.90;;;;;;4995913;28;20477;-64
2023/10/30 06:17:57;;;;;;;11.70;1.63;;;9.70;99.90;;;;;;4999145;28;20025;-63
2023/10/30 06:20:23;;;;;;;9.88;1.50;;;9.70;99.90;;;;;;4997794;28;20031;-63
2023/10/30 06:22:49;;;;;;;6.00;1.80;;;9.70;99.90;;;;;;5001224;28;20026;-63
2023/10/30 06:25:14;;;;;;;2.78;1.67;;;9.70;99.90;;;;;;5000315;28;20579;-64
2023/10/30 06:27:41;;;;;;;3.17;1.65;;;9.60;99.90;;;;;;4998073;28;20127;-62
2023/10/30 06:30:08;;;;;;;6.22;1.55;;;9.60;99.90;;;;;;5005103;28;20389;-62
2023/10/30 06:32:35;;;;;;;3.72;1.88;;;9.50;99.90;;;;;;4999227;28;20046;-63
2023/10/30 06:35:01;;;;;;;2.60;2.15;;;9.50;99.90;;;;;;5001716;28;20044;-63
2023/10/30 06:37:26;;;;;;;13.68;2.60;;;9.50;99.90;;;;;;4999451;28;20397;-62
2023/10/30 06:39:52;;;;;;;12.55;2.60;;;9.50;99.90;;;;;;4997969;28;20384;-63
2023/10/30 06:42:18;;;;;;;7.30;2.20;;;9.60;99.90;;;;;;4999801;28;20030;-62
2023/10/30 06:44:44;;;;;;;9.18;2.20;;;9.60;99.90;;;;;;5000191;28;20037;-62
2023/10/30 06:47:10;;;;;;;6.63;2.47;;;9.60;99.90;;;;;;4996892;28;20034;-61
2023/10/30 06:49:35;;;;;;;3.90;2.58;;;9.70;99.90;;;;;;4998232;28;20026;-63
2023/10/30 06:52:01;;;;;;;8.52;3.30;;;9.70;99.90;;;;;;4997421;28;20022;-63
2023/10/30 06:54:26;;;;;;;4.03;2.65;;;9.80;99.90;;;;;;4999939;28;20112;-62
2023/10/30 06:56:52;;;;;;;5.28;2.25;;;9.90;99.90;;;;;;4998238;28;20014;-62
2023/10/30 06:59:18;;;;;;;6.47;2.55;;;10.10;99.90;;;;;;4999704;28;20196;-63
2023/10/30 07:01:45;;;;;;;3.72;2.00;;;10.20;99.90;;;;;;5001021;28;20144;-62
2023/10/30 07:04:12;;;;;;;3.45;2.20;;;10.30;99.90;;;;;;4998454;28;20033;-62
2023/10/30 07:06:39;;;;;;;9.98;2.40;;;10.40;99.90;;;;;;5001589;28;20058;-63
2023/10/30 07:09:08;;;;;;;3.97;1.90;;;10.50;99.90;;;;;;5000134;28;20025;-61
2023/10/30 07:11:39;;;;;;;4.43;2.15;;;10.60;99.90;;;;;;4998885;28;20079;-63
2023/10/30 07:14:05;;;;;;;6.88;2.00;;;10.70;99.90;;;;;;4997527;28;20577;-63
2023/10/30 07:16:33;;;;;;;4.78;2.30;;;10.70;99.90;;;;;;5000971;28;20065;-63
2023/10/30 07:18:59;;;;;;;4.35;2.50;;;10.80;99.90;;;;;;4999118;28;20027;-63
2023/10/30 07:21:28;;;;;;;8.10;3.50;;;10.90;99.90;;;;;;5002830;28;20053;-63
2023/10/30 07:23:54;;;;;;;5.10;2.72;;;11.00;99.90;;;;;;4997662;28;20029;-63
2023/10/30 07:26:21;;;;;;;5.55;2.20;;;11.00;99.90;;;;;;4999749;28;20144;-63
2023/10/30 07:28:48;;;;;;;8.40;3.33;;;11.10;99.90;;;;;;4995343;28;20034;-63
2023/10/30 07:31:14;;;;;;;30.15;6.50;;;11.20;99.90;;;;;;4999672;28;20030;-63
2023/10/30 07:33:40;;;;;;;45.53;10.38;;;11.20;99.90;;;;;;4997813;28;20038;-63
2023/10/30 07:36:06;;;;;;;12.40;3.80;;;11.40;99.90;;;;;;4995424;28;21312;-63
2023/10/30 07:38:31;;;;;;;13.85;3.72;;;11.50;99.90;;;;;;4997627;28;20084;-63
2023/10/30 07:40:57;;;;;;;13.23;3.78;;;11.70;99.90;;;;;;4996059;28;20574;-63
2023/10/30 07:43:22;;;;;;;10.60;3.63;;;11.70;99.90;;;;;;4996837;28;20108;-63
2023/10/30 07:45:50;;;;;;;5.90;1.40;;;11.70;99.90;;;;;;4999527;28;20057;-64
2023/10/30 07:48:16;;;;;;;5.63;1.77;;;11.70;99.90;;;;;;4999106;28;20030;-63
2023/10/30 07:50:42;;;;;;;3.95;1.10;;;11.70;99.90;;;;;;5002062;28;20060;-63
2023/10/30 07:53:08;;;;;;;7.95;3.38;;;11.70;99.90;;;;;;4999395;28;20042;-63
2023/10/30 07:55:36;;;;;;;7.63;1.70;;;11.80;99.90;;;;;;5000431;28;20030;-63
2023/10/30 07:58:04;;;;;;;1.83;1.40;;;11.70;99.90;;;;;;5001171;28;20895;-63
2023/10/30 08:00:30;;;;;;;2.13;1.60;;;11.70;99.90;;;;;;4998380;28;20416;-63
2023/10/30 08:02:56;;;;;;;2.28;1.52;;;11.50;99.90;;;;;;5002085;28;20097;-63
2023/10/30 08:05:22;;;;;;;2.67;1.40;;;11.40;99.90;;;;;;4997481;28;20034;-63
2023/10/30 08:07:48;;;;;;;1.95;1.42;;;11.30;99.90;;;;;;4996235;28;20027;-62
2023/10/30 08:10:14;;;;;;;3.75;1.40;;;11.30;99.90;;;;;;4999352;28;20046;-63
2023/10/30 08:12:40;;;;;;;2.95;1.67;;;11.40;99.90;;;;;;4997708;28;20038;-62
2023/10/30 08:15:09;;;;;;;2.45;1.80;;;11.50;99.90;;;;;;4999002;28;20101;-63
2023/10/30 08:17:35;;;;;;;3.45;1.58;;;11.60;99.90;;;;;;4999273;28;20446;-60
2023/10/30 08:20:02;;;;;;;4.70;1.70;;;11.70;99.90;;;;;;4999552;28;20485;-62
2023/10/30 08:22:28;;;;;;;2.60;1.58;;;11.90;99.90;;;;;;4998997;28;20417;-62
2023/10/30 08:24:53;;;;;;;2.03;1.60;;;11.90;99.90;;;;;;4995970;28;20022;-63
2023/10/30 08:27:19;;;;;;;2.35;1.45;;;11.90;99.90;;;;;;4998383;28;20098;-61
2023/10/30 08:29:44;;;;;;;2.28;1.27;;;12.00;99.90;;;;;;4997171;28;20072;-62
2023/10/30 08:32:10;;;;;;;1.40;1.30;;;12.00;99.90;;;;;;4999301;28;20083;-62
2023/10/30 08:34:36;;;;;;;1.40;1.30;;;12.10;99.90;;;;;;5002559;28;20034;-63
2023/10/30 08:37:01;;;;;;;2.30;1.67;;;12.20;99.90;;;;;;4995515;28;20037;-63
2023/10/30 08:39:27;;;;;;;2.08;1.50;;;12.20;99.90;;;;;;4997576;28;20355;-62
2023/10/30 08:41:52;;;;;;;2.15;1.95;;;12.30;99.90;;;;;;4998378;28;20041;-62
2023/10/30 08:44:18;;;;;;;3.90;1.33;;;12.40;99.90;;;;;;4995785;28;20026;-63
2023/10/30 08:46:44;;;;;;;4.88;1.50;;;12.40;99.90;;;;;;4999112;28;20026;-62
2023/10/30 08:49:09;;;;;;;2.30;1.80;;;12.50;99.90;;;;;;4998354;28;20705;-63
2023/10/30 08:51:42;;;;;;;4.20;1.60;;;12.60;99.90;;;;;;4998322;28;20033;-61
2023/10/30 08:54:08;;;;;;;2.03;1.40;;;12.80;99.90;;;;;;4997087;28;20025;-63
2023/10/30 08:56:34;;;;;;;3.22;1.17;;;13.00;99.90;;;;;;4997149;28;20410;-63
2023/10/30 08:58:59;;;;;;;2.97;1.10;;;13.20;99.90;;;;;;4997693;28;20034;-63
2023/10/30 09:01:26;;;;;;;1.35;1.20;;;13.60;99.90;;;;;;4996741;28;20026;-62
2023/10/30 09:03:52;;;;;;;1.73;1.30;;;14.10;99.90;;;;;;4997163;28;20396;-63
2023/10/30 09:06:18;;;;;;;2.33;1.23;;;14.40;99.90;;;;;;4999283;28;20069;-63
2023/10/30 09:08:44;;;;;;;1.42;1.02;;;14.80;99.90;;;;;;4998206;28;20026;-63
2023/10/30 09:11:10;;;;;;;5.22;1.17;;;15.00;99.90;;;;;;4995290;28;20045;-63
2023/10/30 09:13:36;;;;;;;1.35;1.08;;;15.20;99.90;;;;;;4996992;28;20121;-63
2023/10/30 09:16:01;;;;;;;2.50;1.10;;;15.40;99.90;;;;;;4996501;28;20712;-61
2023/10/30 09:18:27;;;;;;;1.15;0.90;;;15.50;99.90;;;;;;4996467;28;20385;-63
2023/10/30 09:20:52;;;;;;;2.00;1.08;;;15.80;99.90;;;;;;4996064;28;20498;-63
2023/10/30 09:23:18;;;;;;;2.25;1.13;;;15.90;99.90;;;;;;4996858;28;20962;-63
2023/10/30 09:25:44;;;;;;;4.75;1.00;;;16.00;99.90;;;;;;4998341;28;20038;-62
2023/10/30 09:28:10;;;;;;;1.83;1.00;;;16.10;99.90;;;;;;4995386;28;20034;-62
2023/10/30 09:30:36;;;;;;;2.35;0.90;;;16.10;99.90;;;;;;4996756;28;20080;-62
2023/10/30 09:33:01;;;;;;;0.90;0.90;;;16.20;99.90;;;;;;4998588;28;20026;-61
2023/10/30 09:35:31;;;;;;;3.50;0.73;;;16.30;99.90;;;;;;4996543;28;20042;-63
2023/10/30 09:37:58;;;;;;;1.00;0.70;;;16.50;99.90;;;;;;4999513;28;20616;-62
2023/10/30 09:40:27;;;;;;;1.85;0.70;;;16.60;99.90;;;;;;4998473;28;20054;-63
2023/10/30 09:42:54;;;;;;;4.43;0.90;;;16.70;99.90;;;;;;4999506;28;20041;-62
2023/10/30 09:45:24;;;;;;;1.00;0.98;;;16.80;99.90;;;;;;4995458;28;20022;-62
2023/10/30 09:47:57;;;;;;;0.65;0.60;;;16.70;99.90;;;;;;4995542;28;20030;-61
2023/10/30 09:50:25;;;;;;;1.60;1.10;;;16.50;99.90;;;;;;5002127;28;20541;-63
2023/10/30 09:52:54;;;;;;;1.10;0.80;;;16.40;99.90;;;;;;5000533;28;20401;-62
2023/10/30 09:55:24;;;;;;;3.00;1.38;;;16.20;99.90;;;;;;4998675;28;20417;-63
2023/10/30 09:57:51;;;;;;;0.90;0.80;;;16.10;99.90;;;;;;4999461;28;20037;-62
2023/10/30 10:00:18;;;;;;;4.55;0.80;;;16.00;99.90;;;;;;4999485;28;20053;-63
2023/10/30 10:02:44;;;;;;;1.63;1.23;;;15.90;99.90;;;;;;5000470;28;20026;-63
2023/10/30 10:05:10;;;;;;;3.60;0.80;;;15.80;99.90;;;;;;4995548;28;20112;-63
2023/10/30 10:07:36;;;;;;;1.73;0.60;;;15.80;99.90;;;;;;4998839;28;20037;-62
2023/10/30 10:10:04;;;;;;;1.27;0.80;;;15.70;99.90;;;;;;4997611;28;20512;-63
2023/10/30 10:12:31;;;;;;;0.88;0.65;;;15.70;99.90;;;;;;4983129;28;20042;-62
2023/10/30 10:14:57;;;;;;;3.15;1.02;;;15.80;99.90;;;;;;5001386;28;20026;-63
2023/10/30 10:17:23;;;;;;;1.50;0.80;;;15.70;99.90;;;;;;4998852;28;20030;-63
2023/10/30 10:19:49;;;;;;;1.92;0.80;;;15.80;99.90;;;;;;4999073;28;20027;-63
2023/10/30 10:22:31;;;;;;;2.22;0.85;;;15.90;99.90;;;;;;4999099;28;20121;-62
2023/10/30 10:24:57;;;;;;;0.90;0.75;;;16.00;99.90;;;;;;4998845;28;20037;-62
2023/10/30 10:27:24;;;;;;;0.73;0.70;;;16.10;99.90;;;;;;4999067;28;20021;-63
2023/10/30 10:29:56;;;;;;;0.68;0.60;;;16.20;99.90;;;;;;4998238;28;20052;-61
2023/10/30 10:32:26;;;;;;;10.02;2.33;;;16.20;99.90;;;;;;4997570;28;20142;-63
2023/10/30 10:34:54;;;;;;;4.85;0.77;;;16.20;99.90;;;;;;4999455;28;20065;-62
2023/10/30 10:37:20;;;;;;;1.52;0.68;;;16.30;99.90;;;;;;4998601;28;20038;-62
2023/10/30 10:39:49;;;;;;;1.02;0.68;;;16.30;99.90;;;;;;4999715;28;20029;-63
2023/10/30 10:42:25;;;;;;;0.98;0.70;;;16.20;99.90;;;;;;4995669;28;20405;-63
2023/10/30 10:44:53;;;;;;;1.65;0.63;;;16.20;99.90;;;;;;4999459;28;20484;-62
2023/10/30 10:47:20;;;;;;;0.85;0.73;;;16.20;99.90;;;;;;4994590;28;20023;-64
2023/10/30 10:49:46;;;;;;;1.75;0.50;;;16.10;99.90;;;;;;4997276;28;20041;-62
2023/10/30 10:52:14;;;;;;;2.13;0.90;;;16.10;99.90;;;;;;5000392;28;20050;-62
2023/10/30 10:54:53;;;;;;;1.83;0.80;;;16.00;99.90;;;;;;4995824;28;20045;-62
2023/10/30 10:57:21;;;;;;;2.58;0.80;;;16.10;99.90;;;;;;4996294;28;20528;-60
2023/10/30 10:59:53;;;;;;;0.88;0.70;;;16.10;99.90;;;;;;5002979;28;20035;-62
2023/10/30 11:02:26;;;;;;;1.08;0.80;;;16.00;99.90;;;;;;5002147;28;20034;-61
2023/10/30 11:04:52;;;;;;;0.63;0.50;;;15.90;99.90;;;;;;4999166;28;20509;-62
2023/10/30 11:07:45;;;;;;;0.88;0.50;;;15.90;99.90;;;;;;4996609;28;20077;-62
2023/10/30 11:10:27;;;;;;;0.68;0.60;;;15.80;99.90;;;;;;4989612;28;20449;-62
2023/10/30 11:13:11;;;;;;;1.50;0.70;;;15.80;99.90;;;;;;4997335;28;20113;-62
2023/10/30 11:15:45;;;;;;;1.30;0.43;;;15.80;99.90;;;;;;5003470;28;20091;-63
2023/10/30 11:18:14;;;;;;;2.58;0.60;;;15.90;99.90;;;;;;4996264;28;20026;-63
2023/10/30 11:20:44;;;;;;;0.52;0.50;;;15.90;99.90;;;;;;4997314;28;20026;-61
2023/10/30 11:23:12;;;;;;;1.30;1.20;;;16.00;99.90;;;;;;4998618;28;20046;-62
2023/10/30 11:25:44;;;;;;;2.35;0.70;;;16.10;99.90;;;;;;4997847;28;20034;-62
2023/10/30 11:28:10;;;;;;;1.08;0.57;;;16.20;99.90;;;;;;4999152;28;20398;-63
2023/10/30 11:30:43;;;;;;;1.70;0.57;;;16.30;99.90;;;;;;4998787;28;20034;-63
2023/10/30 11:33:24;;;;;;;1.13;0.75;;;16.40;99.90;;;;;;4996938;28;20053;-60
2023/10/30 11:36:14;;;;;;;1.55;0.80;;;16.40;99.90;;;;;;4995238;28;20065;-61
2023/10/30 11:38:52;;;;;;;2.10;0.70;;;16.40;99.90;;;;;;4998340;28;20129;-61
2023/10/30 11:41:18;;;;;;;1.15;0.60;;;16.40;99.90;;;;;;4997429;28;20019;-62
2023/10/30 11:43:45;;;;;;;1.25;0.50;;;16.30;99.90;;;;;;5000298;28;20045;-62
2023/10/30 11:46:16;;;;;;;0.60;0.60;;;16.40;99.90;;;;;;4998857;28;20032;-61
2023/10/30 11:48:41;;;;;;;;;;;16.50;99.90;;;;;;4999127;28;20023;-61
2023/10/30 11:51:08;;;;;;;3.58;0.80;;;16.50;99.90;;;;;;4998924;28;20263;-61
2023/10/30 11:53:34;;;;;;;0.98;0.60;;;16.60;99.90;;;;;;5001853;28;20096;-61
2023/10/30 11:56:00;;;;;;;0.73;0.60;;;16.70;99.90;;;;;;4999070;28;20030;-62
2023/10/30 11:58:27;;;;;;;1.73;0.50;;;16.70;99.90;;;;;;4998681;28;20133;-60
2023/10/30 12:00:53;;;;;;;1.15;0.60;;;16.90;99.90;;;;;;4996184;28;20037;-62
2023/10/30 12:03:19;;;;;;;1.35;0.50;;;16.90;99.90;;;;;;4994997;28;20023;-62
2023/10/30 12:05:45;;;;;;;0.75;0.50;;;17.00;99.90;;;;;;4998142;28;20037;-62
2023/10/30 12:08:11;;;;;;;3.60;0.60;;;17.00;99.90;;;;;;4995398;28;20489;-62
2023/10/30 12:10:39;;;;;;;0.73;0.55;;;17.00;99.90;;;;;;4996305;28;20089;-62
2023/10/30 12:13:05;;;;;;;1.60;0.57;;;17.00;99.90;;;;;;4997733;28;20034;-62
2023/10/30 12:15:32;;;;;;;6.72;0.60;;;16.80;99.90;;;;;;4995279;28;20042;-62
2023/10/30 12:17:57;;;;;;;1.73;0.70;;;16.60;99.90;;;;;;4996372;28;20018;-62
2023/10/30 12:20:23;;;;;;;1.70;0.60;;;16.50;99.90;;;;;;5000814;28;20033;-62
2023/10/30 12:22:49;;;;;;;1.23;0.77;;;16.50;99.90;;;;;;4997714;28;20045;-62
2023/10/30 12:25:17;;;;;;;1.95;0.60;;;16.50;99.90;;;;;;4994950;28;20486;-62
2023/10/30 12:27:44;;;;;;;0.98;0.60;;;16.60;99.90;;;;;;4998278;28;20690;-63
2023/10/30 12:30:18;;;;;;;2.00;0.60;;;16.90;99.90;;;;;;5000390;28;20385;-61
2023/10/30 12:32:54;;;;;;;1.88;0.60;;;17.10;99.90;;;;;;4996790;28;20378;-63
2023/10/30 12:35:20;;;;;;;1.90;0.68;;;17.10;99.90;;;;;;4996445;28;20038;-61
2023/10/30 12:37:45;;;;;;;1.27;0.75;;;17.10;99.90;;;;;;4996679;28;20118;-62
2023/10/30 12:40:15;;;;;;;1.48;0.70;;;17.10;99.90;;;;;;4997369;28;20112;-62
2023/10/30 12:42:45;;;;;;;1.17;0.65;;;17.10;99.90;;;;;;4997567;28;20088;-63
2023/10/30 12:45:15;;;;;;;1.20;0.65;;;17.20;99.90;;;;;;4995577;28;20081;-62